This is the latest recevied weather packets stored in our database for station/object KC5DAQ-28. If no packets are shown the sender has not sent any weather packets the latest 1 day(s).
| Time | Temp. | Humidity | Pressure | Rain* | Wind** | Luminosity | Snow |
|---|---|---|---|---|---|---|---|
| 1777985051 | 22.22° C | 90% | 1002.9 hPa | 0 mm | 0.89 m/s, 175° | 118 W/m² | - |
| 1777984993 | 22.22° C | 90% | 1003.1 hPa | 0 mm | 0.89 m/s, 159° | 125 W/m² | - |
| 1777984933 | 22.22° C | 90% | 1002.8 hPa | 0 mm | 0.89 m/s, 128° | 125 W/m² | - |
| 1777984873 | 22.22° C | 90% | 1003 hPa | 0 mm | 0.45 m/s, 165° | 130 W/m² | - |
| 1777984813 | 22.22° C | 90% | 1002.9 hPa | 0 mm | 0.89 m/s, 162° | 130 W/m² | - |
| 1777984753 | 22.22° C | 90% | 1003 hPa | 0 mm | 1.34 m/s, 164° | 123 W/m² | - |
| 1777984692 | 22.22° C | 90% | 1002.9 hPa | 0 mm | 1.34 m/s, 157° | 97 W/m² | - |
| 1777984631 | 22.22° C | 90% | 1003 hPa | 0 mm | 1.34 m/s, 154° | 95 W/m² | - |
| 1777984573 | 22.22° C | 90% | 1003 hPa | 0 mm | 1.34 m/s, 140° | 97 W/m² | - |
| 1777984513 | 22.22° C | 90% | 1003 hPa | 0 mm | 1.34 m/s, 178° | 97 W/m² | - |
| 1777984452 | 22.22° C | 90% | 1002.9 hPa | 0 mm | 1.34 m/s, 130° | 93 W/m² | - |
| 1777984393 | 22.22° C | 90% | 1003.1 hPa | 0 mm | 0.89 m/s, 166° | 93 W/m² | - |
| 1777984331 | 22.22° C | 90% | 1003 hPa | 0 mm | 0.89 m/s, 137° | 92 W/m² | - |
| 1777984271 | 22.22° C | 90% | 1002.9 hPa | 0 mm | 1.34 m/s, 130° | 90 W/m² | - |
| 1777984213 | 22.22° C | 90% | 1002.9 hPa | 0 mm | 0.89 m/s, 148° | 86 W/m² | - |
| 1777984151 | 22.22° C | 90% | 1002.9 hPa | 0 mm | 0.89 m/s, 158° | 70 W/m² | - |
| 1777984093 | 22.22° C | 90% | 1002.8 hPa | 0 mm | 0.89 m/s, 154° | 70 W/m² | - |
| 1777984031 | 22.22° C | 90% | 1002.8 hPa | 0 mm | 0.89 m/s, 154° | 70 W/m² | - |
| 1777983971 | 22.22° C | 90% | 1002.8 hPa | 0 mm | 0.89 m/s, 162° | 70 W/m² | - |
| 1777983913 | 22.22° C | 90% | 1002.9 hPa | 0 mm | 0.89 m/s, 162° | 70 W/m² | - |
| 1777983851 | 22.22° C | 91% | 1002.7 hPa | 0 mm | 0.89 m/s, 149° | 70 W/m² | - |
| 1777983792 | 21.67° C | 91% | 1002.7 hPa | 0 mm | 0.89 m/s, 145° | 74 W/m² | - |
| 1777983734 | 21.67° C | 91% | 1002.8 hPa | 0 mm | 0.89 m/s, 147° | 79 W/m² | - |
| 1777983672 | 21.67° C | 91% | 1002.8 hPa | 0 mm | 0.89 m/s, 149° | 79 W/m² | - |
| 1777983613 | 21.67° C | 91% | 1002.8 hPa | 0 mm | 0.45 m/s, 154° | 72 W/m² | - |
* Rain latest hour (hover to see other rain measurements)
** Current wind speed in m/s (hover to see current wind gust speed)